createdAt,value
2017-10-09T00:00:01.610Z,7.54
2017-10-09T00:01:01.584Z,7.48
2017-10-09T00:02:01.561Z,7.44
2017-10-09T00:03:01.548Z,7.47
2017-10-09T00:04:01.520Z,7.52
2017-10-09T00:05:01.497Z,7.42
2017-10-09T00:06:01.468Z,7.36
2017-10-09T00:07:06.476Z,7.39
2017-10-09T00:08:01.414Z,7.45
2017-10-09T00:09:01.390Z,7.37
2017-10-09T00:10:01.059Z,7.39
2017-10-09T00:11:01.340Z,7.36
2017-10-09T00:12:01.315Z,7.37
2017-10-09T00:13:01.292Z,7.41
2017-10-09T00:14:00.960Z,7.27
2017-10-09T00:15:01.241Z,7.27
2017-10-09T00:16:01.221Z,7.33
2017-10-09T00:17:01.199Z,7.3
2017-10-09T00:18:01.184Z,7.39
2017-10-09T00:19:01.146Z,7.39
2017-10-09T00:20:01.126Z,7.29
2017-10-09T00:21:01.116Z,7.32
2017-10-09T00:22:01.070Z,7.23
2017-10-09T00:23:01.048Z,7.23
2017-10-09T00:24:01.025Z,7.33
2017-10-09T00:25:00.996Z,7.24
2017-10-09T00:26:00.669Z,7.32
2017-10-09T00:27:00.957Z,7.33
2017-10-09T00:28:00.935Z,7.26
2017-10-09T00:29:00.592Z,7.26
2017-10-09T00:30:00.877Z,7.24
2017-10-09T00:31:00.848Z,7.29
2017-10-09T00:32:00.828Z,7.26
2017-10-09T00:33:00.805Z,7.24
2017-10-09T00:34:00.780Z,7.19
2017-10-09T00:35:00.451Z,7.16
2017-10-09T00:36:00.735Z,7.24
2017-10-09T00:37:00.706Z,7.3
2017-10-09T00:38:00.683Z,7.23
2017-10-09T00:39:00.653Z,7.24
2017-10-09T00:40:00.634Z,7.23
2017-10-09T00:41:00.607Z,7.32
2017-10-09T00:42:00.583Z,7.24
2017-10-09T00:43:00.555Z,7.26
2017-10-09T00:44:00.531Z,7.24
2017-10-09T00:45:00.502Z,7.24
2017-10-09T00:46:00.487Z,7.29
2017-10-09T00:47:00.157Z,7.19
2017-10-09T00:48:00.432Z,7.16
2017-10-09T00:49:00.407Z,7.21
2017-10-09T00:50:00.390Z,7.15
2017-10-09T00:51:00.358Z,7.19
2017-10-09T00:52:00.337Z,7.14
2017-10-09T00:53:00.316Z,7.12
2017-10-09T00:53:59.666Z,7.14
2017-10-09T00:55:00.265Z,7.15
2017-10-09T00:56:00.246Z,7.14
2017-10-09T00:57:00.222Z,7.09
2017-10-09T00:57:59.879Z,7.08
2017-10-09T00:59:00.171Z,7.05
2017-10-09T00:59:59.830Z,7.01
2017-10-09T01:00:59.805Z,7.07
2017-10-09T01:02:00.099Z,7.08
2017-10-09T01:03:00.074Z,7.07
2017-10-09T01:03:59.739Z,7.09
2017-10-09T01:05:00.028Z,7.11
2017-10-09T01:05:59.990Z,7.07
2017-10-09T01:06:59.976Z,7.04
2017-10-09T01:07:59.942Z,7
2017-10-09T01:08:59.928Z,7.08
2017-10-09T01:09:59.901Z,7.12
2017-10-09T01:10:59.872Z,7.09
2017-10-09T01:11:59.853Z,7.15
2017-10-09T01:12:59.826Z,7.15
2017-10-09T01:13:59.800Z,7.14
2017-10-09T01:14:59.768Z,7.24
2017-10-09T01:15:59.746Z,7.29
2017-10-09T01:16:59.719Z,7.34
2017-10-09T01:17:59.705Z,7.27
2017-10-09T01:18:59.671Z,7.41
2017-10-09T01:19:59.649Z,7.42
2017-10-09T01:20:59.625Z,7.42
2017-10-09T01:21:59.602Z,7.5
2017-10-09T01:22:59.574Z,7.52
2017-10-09T01:23:59.550Z,7.6
2017-10-09T01:24:59.539Z,7.62
2017-10-09T01:25:59.501Z,7.63
2017-10-09T01:26:59.175Z,7.71
2017-10-09T01:27:59.459Z,7.58
2017-10-09T01:28:59.432Z,7.69
2017-10-09T01:29:59.412Z,7.69
2017-10-09T01:30:59.376Z,7.74
2017-10-09T01:31:59.359Z,7.79
2017-10-09T01:32:59.333Z,7.76
2017-10-09T01:33:59.312Z,7.81
2017-10-09T01:34:59.279Z,7.88
2017-10-09T01:35:59.263Z,7.94
2017-10-09T01:36:59.233Z,7.95
2017-10-09T01:37:59.210Z,7.95
2017-10-09T01:38:59.186Z,7.94
2017-10-09T01:39:59.161Z,7.95
2017-10-09T01:40:59.136Z,7.99
2017-10-09T01:41:59.115Z,7.95
2017-10-09T01:42:59.089Z,8
2017-10-09T01:43:59.065Z,7.99
2017-10-09T01:44:59.037Z,7.92
2017-10-09T01:45:59.015Z,8.04
2017-10-09T01:46:58.991Z,7.99
2017-10-09T01:47:58.967Z,8
2017-10-09T01:48:58.937Z,8.09
2017-10-09T01:49:58.612Z,7.96
2017-10-09T01:50:58.892Z,7.99
2017-10-09T01:51:58.867Z,7.96
2017-10-09T01:52:58.850Z,7.99
2017-10-09T01:53:58.522Z,7.96
2017-10-09T01:54:58.795Z,7.99
2017-10-09T01:55:58.782Z,8.09
2017-10-09T01:56:58.747Z,8.03
2017-10-09T01:57:58.723Z,8.02
2017-10-09T01:58:58.701Z,8.07
2017-10-09T01:59:58.681Z,8.06
2017-10-09T02:00:58.654Z,8.09
2017-10-09T02:01:58.627Z,8.04
2017-10-09T02:02:58.616Z,8.1
2017-10-09T02:03:58.583Z,8.07
2017-10-09T02:04:58.555Z,8.03
2017-10-09T02:05:58.534Z,8.02
2017-10-09T02:06:58.513Z,7.99
2017-10-09T02:07:58.498Z,7.99
2017-10-09T02:08:58.459Z,8.04
2017-10-09T02:09:58.131Z,7.95
2017-10-09T02:10:58.110Z,7.88
2017-10-09T02:11:58.382Z,7.96
2017-10-09T02:12:58.367Z,7.88
2017-10-09T02:13:58.350Z,7.82
2017-10-09T02:14:58.317Z,7.84
2017-10-09T02:15:58.287Z,7.81
2017-10-09T02:16:58.266Z,7.82
2017-10-09T02:17:58.247Z,7.7
2017-10-09T02:18:58.218Z,7.74
2017-10-09T02:19:58.188Z,7.77
2017-10-09T02:20:58.175Z,7.77
2017-10-09T02:21:58.152Z,7.82
2017-10-09T02:22:58.123Z,7.91
2017-10-09T02:23:58.097Z,7.92
2017-10-09T02:24:58.071Z,7.99
2017-10-09T02:25:57.737Z,7.86
2017-10-09T02:26:58.024Z,7.82
2017-10-09T02:27:57.693Z,7.89
2017-10-09T02:28:57.988Z,7.95
2017-10-09T02:29:57.955Z,8.03
2017-10-09T02:30:57.925Z,8.02
2017-10-09T02:31:57.898Z,8.03
2017-10-09T02:32:57.886Z,7.95
2017-10-09T02:33:57.864Z,7.91
2017-10-09T02:34:57.838Z,7.92
2017-10-09T02:35:57.812Z,7.91
2017-10-09T02:36:57.786Z,7.82
2017-10-09T02:37:57.757Z,7.79
2017-10-09T02:38:57.738Z,7.7
2017-10-09T02:39:57.704Z,7.76
2017-10-09T02:40:57.683Z,7.82
2017-10-09T02:41:57.659Z,7.99
2017-10-09T02:42:57.637Z,7.86
2017-10-09T02:43:57.612Z,7.95
2017-10-09T02:44:57.586Z,7.84
2017-10-09T02:45:57.557Z,7.76
2017-10-09T02:46:57.538Z,7.74
2017-10-09T02:47:57.514Z,7.74
2017-10-09T02:48:57.505Z,7.77
2017-10-09T02:49:57.462Z,7.81
2017-10-09T02:50:57.435Z,7.69
2017-10-09T02:51:57.420Z,7.69
2017-10-09T02:52:57.084Z,7.7
2017-10-09T02:53:57.369Z,7.7
2017-10-09T02:54:57.349Z,7.67
2017-10-09T02:55:57.317Z,7.71
2017-10-09T02:56:57.301Z,7.71
2017-10-09T02:57:57.273Z,7.6
2017-10-09T02:58:57.250Z,7.71
2017-10-09T02:59:57.222Z,7.63
2017-10-09T03:00:57.205Z,7.66
2017-10-09T03:01:57.175Z,7.52
2017-10-09T03:02:57.150Z,7.6
2017-10-09T03:03:57.125Z,7.55
2017-10-09T03:04:57.106Z,7.63
2017-10-09T03:05:57.083Z,7.54
2017-10-09T03:06:57.052Z,7.55
2017-10-09T03:07:57.029Z,7.51
2017-10-09T03:08:57.003Z,7.54
2017-10-09T03:09:56.978Z,7.54
2017-10-09T03:10:56.955Z,7.51
2017-10-09T03:11:56.923Z,7.55
2017-10-09T03:12:56.912Z,7.63
2017-10-09T03:13:56.882Z,7.67
2017-10-09T03:14:56.852Z,7.51
2017-10-09T03:15:56.836Z,7.54
2017-10-09T03:16:56.803Z,7.48
2017-10-09T03:17:56.788Z,7.47
2017-10-09T03:18:56.756Z,7.57
2017-10-09T03:19:56.734Z,7.52
2017-10-09T03:20:56.713Z,7.48
2017-10-09T03:21:56.687Z,7.52
2017-10-09T03:22:56.656Z,7.48
2017-10-09T03:23:56.637Z,7.55
2017-10-09T03:24:56.611Z,7.37
2017-10-09T03:25:56.590Z,7.45
2017-10-09T03:26:56.561Z,7.5
2017-10-09T03:27:56.545Z,7.48
2017-10-09T03:28:56.208Z,7.5
2017-10-09T03:29:56.490Z,7.42
2017-10-09T03:30:56.468Z,7.41
2017-10-09T03:31:56.441Z,7.36
2017-10-09T03:32:56.420Z,7.36
2017-10-09T03:33:56.394Z,7.34
2017-10-09T03:34:56.365Z,7.36
2017-10-09T03:35:56.342Z,7.33
2017-10-09T03:36:56.315Z,7.24
2017-10-09T03:37:56.294Z,7.16
2017-10-09T03:38:56.271Z,7.16
2017-10-09T03:39:56.245Z,7.14
2017-10-09T03:40:56.222Z,7.08
2017-10-09T03:41:56.193Z,7.04
2017-10-09T03:42:56.172Z,7.09
2017-10-09T03:43:56.148Z,7.12
2017-10-09T03:44:56.129Z,6.97
2017-10-09T03:45:56.095Z,6.96
2017-10-09T03:46:56.073Z,6.89
2017-10-09T03:47:56.049Z,6.91
2017-10-09T03:48:56.028Z,6.89
2017-10-09T03:49:55.993Z,6.9
2017-10-09T03:50:55.982Z,6.93
2017-10-09T03:51:55.951Z,6.89
2017-10-09T03:52:55.924Z,6.89
2017-10-09T03:53:55.898Z,6.79
2017-10-09T03:54:55.867Z,6.75
2017-10-09T03:55:55.850Z,6.79
2017-10-09T03:56:55.823Z,6.71
2017-10-09T03:57:55.801Z,6.76
2017-10-09T03:58:55.772Z,6.73
2017-10-09T03:59:55.751Z,6.79
2017-10-09T04:00:55.722Z,6.71
2017-10-09T04:01:55.708Z,6.73
2017-10-09T04:02:55.675Z,6.73
2017-10-09T04:03:55.666Z,6.69
2017-10-09T04:04:55.328Z,6.78
2017-10-09T04:05:55.608Z,6.76
2017-10-09T04:06:55.576Z,6.78
2017-10-09T04:07:55.244Z,6.79
2017-10-09T04:08:55.528Z,6.76
2017-10-09T04:09:55.533Z,6.82
2017-10-09T04:10:55.473Z,6.81
2017-10-09T04:11:55.459Z,6.76
2017-10-09T04:12:55.429Z,6.83
2017-10-09T04:13:55.404Z,6.75
2017-10-09T04:14:55.378Z,6.83
2017-10-09T04:15:55.359Z,6.75
2017-10-09T04:16:55.334Z,6.76
2017-10-09T04:17:55.309Z,6.75
2017-10-09T04:18:55.280Z,6.81
2017-10-09T04:19:55.258Z,6.71
2017-10-09T04:20:55.228Z,6.73
2017-10-09T04:21:55.217Z,6.71
2017-10-09T04:22:55.180Z,6.76
2017-10-09T04:23:55.159Z,6.78
2017-10-09T04:24:55.128Z,6.82
2017-10-09T04:25:55.105Z,6.73
2017-10-09T04:26:55.080Z,6.76
2017-10-09T04:27:55.055Z,6.75
2017-10-09T04:28:55.034Z,6.72
2017-10-09T04:29:54.700Z,6.81
2017-10-09T04:30:54.982Z,6.87
2017-10-09T04:31:54.956Z,6.82
2017-10-09T04:32:54.939Z,6.86
2017-10-09T04:33:54.903Z,6.89
2017-10-09T04:34:54.883Z,6.87
2017-10-09T04:35:54.557Z,6.87
2017-10-09T04:36:54.836Z,6.91
2017-10-09T04:37:54.813Z,6.91
2017-10-09T04:38:54.784Z,6.86
2017-10-09T04:39:54.758Z,6.9
2017-10-09T04:40:54.741Z,6.94
2017-10-09T04:41:54.706Z,7.05
2017-10-09T04:42:54.687Z,6.89
2017-10-09T04:43:54.871Z,7.01
2017-10-09T04:44:54.636Z,6.99
2017-10-09T04:45:54.621Z,7.04
2017-10-09T04:46:54.588Z,7.07
2017-10-09T04:47:54.566Z,7.07
2017-10-09T04:48:54.537Z,7.01
2017-10-09T04:49:54.517Z,7.16
2017-10-09T04:50:54.487Z,7.19
2017-10-09T04:51:54.473Z,7.15
2017-10-09T04:52:54.443Z,7.15
2017-10-09T04:53:54.414Z,7.14
2017-10-09T04:54:54.396Z,7.08
2017-10-09T04:55:54.371Z,7.18
2017-10-09T04:56:54.345Z,7.15
2017-10-09T04:57:54.315Z,7.16
2017-10-09T04:58:53.987Z,7.18
2017-10-09T04:59:54.264Z,7.18
2017-10-09T05:00:54.248Z,7.19
2017-10-09T05:01:54.220Z,7.29
2017-10-09T05:02:54.197Z,7.24
2017-10-09T05:03:54.171Z,7.24
2017-10-09T05:04:54.144Z,7.32
2017-10-09T05:05:54.114Z,7.32
2017-10-09T05:06:54.101Z,7.26
2017-10-09T05:07:54.070Z,7.29
2017-10-09T05:08:54.049Z,7.29
2017-10-09T05:09:54.030Z,7.23
2017-10-09T05:10:54.001Z,7.3
2017-10-09T05:11:53.977Z,7.32
2017-10-09T05:12:53.950Z,7.26
2017-10-09T05:13:53.924Z,7.27
2017-10-09T05:14:53.893Z,7.27
2017-10-09T05:15:53.872Z,7.24
2017-10-09T05:16:53.857Z,7.21
2017-10-09T05:17:53.826Z,7.16
2017-10-09T05:18:53.799Z,7.29
2017-10-09T05:19:53.773Z,7.24
2017-10-09T05:20:53.752Z,7.18
2017-10-09T05:21:53.736Z,7.29
2017-10-09T05:22:53.703Z,7.23
2017-10-09T05:23:53.376Z,7.19
2017-10-09T05:24:53.651Z,7.19
2017-10-09T05:25:53.632Z,7.27
2017-10-09T05:26:53.603Z,7.18
2017-10-09T05:27:53.580Z,7.18
2017-10-09T05:28:53.559Z,7.08
2017-10-09T05:29:53.526Z,7.18
2017-10-09T05:30:53.514Z,7.16
2017-10-09T05:31:53.172Z,7.23
2017-10-09T05:32:53.458Z,7.16
2017-10-09T05:33:53.439Z,7.18
2017-10-09T05:34:53.408Z,7.15
2017-10-09T05:35:53.390Z,7.14
2017-10-09T05:36:53.363Z,7.16
2017-10-09T05:37:53.335Z,7.16
2017-10-09T05:38:53.313Z,7.33
2017-10-09T05:39:53.291Z,7.36
2017-10-09T05:40:53.261Z,7.45
2017-10-09T05:41:53.237Z,7.39
2017-10-09T05:42:53.213Z,7.45
2017-10-09T05:43:53.189Z,7.39
2017-10-09T05:44:53.155Z,7.24
2017-10-09T05:45:53.144Z,7.32
2017-10-09T05:46:53.122Z,7.26
2017-10-09T05:47:53.089Z,7.27
2017-10-09T05:48:52.758Z,7.26
2017-10-09T05:49:53.043Z,7.27
2017-10-09T05:50:53.018Z,7.27
2017-10-09T05:51:52.994Z,7.24
2017-10-09T05:52:52.660Z,7.24
2017-10-09T05:53:52.940Z,7.24
2017-10-09T05:54:52.920Z,7.32
2017-10-09T05:55:52.895Z,7.36
2017-10-09T05:56:52.870Z,7.37
2017-10-09T05:57:52.848Z,7.5
2017-10-09T05:58:52.815Z,7.48
2017-10-09T05:59:52.799Z,7.54
2017-10-09T06:00:52.781Z,7.5
2017-10-09T06:01:52.751Z,7.48
2017-10-09T06:02:52.725Z,7.5
2017-10-09T06:03:52.698Z,7.51
2017-10-09T06:04:52.671Z,7.52
2017-10-09T06:05:52.646Z,7.67
2017-10-09T06:06:52.622Z,7.58
2017-10-09T06:07:52.601Z,7.63
2017-10-09T06:08:52.570Z,7.69
2017-10-09T06:09:52.553Z,7.76
2017-10-09T06:10:52.524Z,7.76
2017-10-09T06:11:52.197Z,7.69
2017-10-09T06:12:52.477Z,7.62
2017-10-09T06:13:52.454Z,7.73
2017-10-09T06:14:52.428Z,7.82
2017-10-09T06:15:52.405Z,7.84
2017-10-09T06:16:52.384Z,7.95
2017-10-09T06:17:52.360Z,7.94
2017-10-09T06:18:52.032Z,8
2017-10-09T06:19:52.530Z,8.04
2017-10-09T06:20:52.287Z,8.03
2017-10-09T06:21:52.274Z,8
2017-10-09T06:22:52.236Z,8.09
2017-10-09T06:23:52.214Z,8.07
2017-10-09T06:24:52.196Z,8.21
2017-10-09T06:25:52.167Z,8.25
2017-10-09T06:26:52.137Z,8.28
2017-10-09T06:27:52.110Z,8.46
2017-10-09T06:28:52.091Z,8.57
2017-10-09T06:29:52.064Z,8.7
2017-10-09T06:30:52.049Z,8.65
2017-10-09T06:31:52.022Z,8.7
2017-10-09T06:32:52.000Z,8.83
2017-10-09T06:33:51.978Z,8.97
2017-10-09T06:34:51.954Z,8.98
2017-10-09T06:35:51.931Z,8.98
2017-10-09T06:36:51.906Z,9.01
2017-10-09T06:37:51.581Z,9
2017-10-09T06:38:51.854Z,8.88
2017-10-09T06:39:51.834Z,8.86
2017-10-09T06:40:51.849Z,8.88
2017-10-09T06:41:51.791Z,8.86
2017-10-09T06:42:51.777Z,8.75
2017-10-09T06:43:51.427Z,8.83
2017-10-09T06:44:51.710Z,8.85
2017-10-09T06:45:51.695Z,8.68
2017-10-09T06:46:51.678Z,8.75
2017-10-09T06:47:51.338Z,8.7
2017-10-09T06:48:51.615Z,8.71
2017-10-09T06:49:51.600Z,8.67
2017-10-09T06:50:51.572Z,8.71
2017-10-09T06:51:51.557Z,8.7
2017-10-09T06:52:51.526Z,8.67
2017-10-09T06:53:51.507Z,8.68
2017-10-09T06:54:51.478Z,8.71
2017-10-09T06:55:51.453Z,8.68
2017-10-09T06:56:51.432Z,8.73
2017-10-09T06:57:51.096Z,8.78
2017-10-09T06:58:51.390Z,8.82
2017-10-09T06:59:51.050Z,8.76
2017-10-09T07:00:51.348Z,8.75
2017-10-09T07:01:51.014Z,8.78
2017-10-09T07:02:51.291Z,8.76
2017-10-09T07:03:51.271Z,8.86
2017-10-09T07:04:51.242Z,8.88
2017-10-09T07:05:51.227Z,8.93
2017-10-09T07:06:51.200Z,8.93
2017-10-09T07:07:50.873Z,8.89
2017-10-09T07:08:51.147Z,8.98
2017-10-09T07:09:51.122Z,8.93
2017-10-09T07:10:51.101Z,8.97
2017-10-09T07:11:50.767Z,9.04
2017-10-09T07:12:51.051Z,9.08
2017-10-09T07:13:51.029Z,9.08
2017-10-09T07:14:51.009Z,9.12
2017-10-09T07:15:50.999Z,9.19
2017-10-09T07:16:50.963Z,9.31
2017-10-09T07:17:50.938Z,9.23
2017-10-09T07:18:50.909Z,9.23
2017-10-09T07:19:50.586Z,9.37
2017-10-09T07:20:50.564Z,9.41
2017-10-09T07:21:50.849Z,9.45
2017-10-09T07:22:50.824Z,9.44
2017-10-09T07:23:50.795Z,9.52
2017-10-09T07:24:50.463Z,9.53
2017-10-09T07:25:50.753Z,9.6
2017-10-09T07:26:50.724Z,9.52
2017-10-09T07:27:50.710Z,9.52
2017-10-09T07:28:50.679Z,9.58
2017-10-09T07:29:50.656Z,9.63
2017-10-09T07:30:50.634Z,9.74
2017-10-09T07:31:50.609Z,9.89
2017-10-09T07:32:50.589Z,10.04
2017-10-09T07:33:50.565Z,10.09
2017-10-09T07:34:50.550Z,10.44
2017-10-09T07:35:50.522Z,10.51
2017-10-09T07:36:50.496Z,10.57
2017-10-09T07:37:50.472Z,10.7
2017-10-09T07:38:50.453Z,10.87
2017-10-09T07:39:50.120Z,10.87
2017-10-09T07:40:50.406Z,10.87
2017-10-09T07:41:50.386Z,10.8
2017-10-09T07:42:50.358Z,10.9
2017-10-09T07:43:50.337Z,10.9
2017-10-09T07:44:50.313Z,10.88
2017-10-09T07:45:50.294Z,11.01
2017-10-09T07:46:50.269Z,11.24
2017-10-09T07:47:50.244Z,11.51
2017-10-09T07:48:50.245Z,11.77
2017-10-09T07:49:49.897Z,11.74
2017-10-09T07:50:49.880Z,11.7
2017-10-09T07:51:50.159Z,11.75
2017-10-09T07:52:50.136Z,11.69
2017-10-09T07:53:50.117Z,11.59
2017-10-09T07:54:50.089Z,11.51
2017-10-09T07:55:49.760Z,11.45
2017-10-09T07:56:50.047Z,11.54
2017-10-09T07:57:49.729Z,11.42
2017-10-09T07:58:50.000Z,11.48
2017-10-09T07:59:49.673Z,11.44
2017-10-09T08:00:49.652Z,11.39
2017-10-09T08:01:49.937Z,11.51
2017-10-09T08:02:49.922Z,11.56
2017-10-09T08:03:49.888Z,11.41
2017-10-09T08:04:49.873Z,11.44
2017-10-09T08:05:49.856Z,11.45
2017-10-09T08:06:49.833Z,11.51
2017-10-09T08:07:49.803Z,11.48
2017-10-09T08:08:49.782Z,11.39
2017-10-09T08:09:49.761Z,11.48
2017-10-09T08:10:49.736Z,11.62
2017-10-09T08:11:49.712Z,11.63
2017-10-09T08:12:49.693Z,11.54
2017-10-09T08:13:49.684Z,11.72
2017-10-09T08:14:49.345Z,11.74
2017-10-09T08:15:49.624Z,11.74
2017-10-09T08:16:49.608Z,11.7
2017-10-09T08:17:49.579Z,11.74
2017-10-09T08:18:49.563Z,11.72
2017-10-09T08:19:49.539Z,11.74
2017-10-09T08:20:49.544Z,11.7
2017-10-09T08:21:49.498Z,11.72
2017-10-09T08:22:49.478Z,11.66
2017-10-09T08:23:49.447Z,11.69
2017-10-09T08:24:49.430Z,11.64
2017-10-09T08:25:49.407Z,11.59
2017-10-09T08:26:49.388Z,11.57
2017-10-09T08:27:49.355Z,11.66
2017-10-09T08:28:49.337Z,11.7
2017-10-09T08:29:49.315Z,11.74
2017-10-09T08:30:49.296Z,11.82
2017-10-09T08:31:49.273Z,11.85
2017-10-09T08:32:49.254Z,11.88
2017-10-09T08:33:49.229Z,11.87
2017-10-09T08:34:49.218Z,11.88
2017-10-09T08:35:49.183Z,11.94
2017-10-09T08:36:49.172Z,11.9
2017-10-09T08:37:48.838Z,11.88
2017-10-09T08:38:49.132Z,11.82
2017-10-09T08:39:49.104Z,11.74
2017-10-09T08:40:48.770Z,11.69
2017-10-09T08:41:49.061Z,11.74
2017-10-09T08:42:49.029Z,11.81
2017-10-09T08:43:49.028Z,11.77
2017-10-09T08:44:48.990Z,11.84
2017-10-09T08:45:48.960Z,11.78
2017-10-09T08:46:48.633Z,11.74
2017-10-09T08:47:48.923Z,11.96
2017-10-09T08:48:48.901Z,11.87
2017-10-09T08:49:48.880Z,11.94
2017-10-09T08:50:48.861Z,11.98
2017-10-09T08:51:48.841Z,12.11
2017-10-09T08:52:48.820Z,12.11
2017-10-09T08:53:48.788Z,12.19
2017-10-09T08:54:48.773Z,12.23
2017-10-09T08:55:48.747Z,12.23
2017-10-09T08:56:48.724Z,12.3
2017-10-09T08:57:48.705Z,12.33
2017-10-09T08:58:48.682Z,12.21
2017-10-09T08:59:48.661Z,12.19
2017-10-09T09:00:48.635Z,12.25
2017-10-09T09:01:48.644Z,12.21
2017-10-09T09:02:48.593Z,12.29
2017-10-09T09:03:48.572Z,12.16
2017-10-09T09:04:48.549Z,12.21
2017-10-09T09:05:48.531Z,12.29
2017-10-09T09:06:48.196Z,12.29
2017-10-09T09:07:48.485Z,12.22
2017-10-09T09:08:48.157Z,12.22
2017-10-09T09:09:48.438Z,12.22
2017-10-09T09:10:48.415Z,12.26
2017-10-09T09:11:48.399Z,12.29
2017-10-09T09:12:48.384Z,12.23
2017-10-09T09:13:48.361Z,12.33
2017-10-09T09:14:48.025Z,12.36
2017-10-09T09:15:48.321Z,12.33
2017-10-09T09:16:48.288Z,12.31
2017-10-09T09:17:48.277Z,12.43
2017-10-09T09:18:48.241Z,12.37
2017-10-09T09:19:48.240Z,12.37
2017-10-09T09:20:47.890Z,12.43
2017-10-09T09:21:48.181Z,12.34
2017-10-09T09:22:48.154Z,12.37
2017-10-09T09:23:48.134Z,12.38
2017-10-09T09:24:48.110Z,12.4
2017-10-09T09:25:48.091Z,12.4
2017-10-09T09:26:48.069Z,12.4
2017-10-09T09:27:48.047Z,12.43
2017-10-09T09:28:48.026Z,12.43
2017-10-09T09:29:47.997Z,12.52
2017-10-09T09:30:47.998Z,12.56
2017-10-09T09:31:47.979Z,12.55
2017-10-09T09:32:47.935Z,12.55
2017-10-09T09:33:47.921Z,12.56
2017-10-09T09:34:47.902Z,12.46
2017-10-09T09:35:47.562Z,12.55
2017-10-09T09:36:47.540Z,12.67
2017-10-09T09:37:47.521Z,12.69
2017-10-09T09:38:47.807Z,12.7
2017-10-09T09:39:47.782Z,12.81
2017-10-09T09:40:47.761Z,12.8
2017-10-09T09:41:47.742Z,12.88
2017-10-09T09:42:47.723Z,12.91
2017-10-09T09:43:47.703Z,12.91
2017-10-09T09:44:47.679Z,12.94
2017-10-09T09:45:47.653Z,12.95
2017-10-09T09:46:47.633Z,12.99
2017-10-09T09:47:47.610Z,13.04
2017-10-09T09:48:47.594Z,13.14
2017-10-09T09:49:47.609Z,13.28
2017-10-09T09:50:47.544Z,13.43
2017-10-09T09:51:47.529Z,13.65
2017-10-09T09:52:47.504Z,13.73
2017-10-09T09:53:47.177Z,13.83
2017-10-09T09:54:47.462Z,13.98
2017-10-09T09:55:47.439Z,13.99
2017-10-09T09:56:47.113Z,14.13
2017-10-09T09:57:47.398Z,14.04
2017-10-09T09:58:47.379Z,14.12
2017-10-09T09:59:47.359Z,14.2
2017-10-09T10:00:47.328Z,14.17
2017-10-09T10:01:47.321Z,14.23
2017-10-09T10:02:47.290Z,14.2
2017-10-09T10:03:47.266Z,14.26
2017-10-09T10:04:47.245Z,14.21
2017-10-09T10:05:47.226Z,14.19
2017-10-09T10:06:46.902Z,14.17
2017-10-09T10:07:47.193Z,14.08
2017-10-09T10:08:47.171Z,14.16
2017-10-09T10:09:46.837Z,14.09
2017-10-09T10:10:47.132Z,13.99
2017-10-09T10:11:47.109Z,13.91
2017-10-09T10:12:47.078Z,13.84
2017-10-09T10:13:47.065Z,13.71
2017-10-09T10:14:47.034Z,13.8
2017-10-09T10:15:47.026Z,13.75
2017-10-09T10:16:46.999Z,13.72
2017-10-09T10:17:46.973Z,13.73
2017-10-09T10:18:46.950Z,13.66
2017-10-09T10:19:46.937Z,13.75
2017-10-09T10:20:46.916Z,13.69
2017-10-09T10:21:46.890Z,13.69
2017-10-09T10:22:46.868Z,13.72
2017-10-09T10:23:46.850Z,13.69
2017-10-09T10:24:46.831Z,13.68
2017-10-09T10:25:46.808Z,13.76
2017-10-09T10:26:46.786Z,13.69
2017-10-09T10:27:46.775Z,13.71
2017-10-09T10:28:46.738Z,13.8
2017-10-09T10:29:46.720Z,13.79
2017-10-09T10:30:46.394Z,13.69
2017-10-09T10:31:46.701Z,13.81
2017-10-09T10:32:46.664Z,13.75
2017-10-09T10:33:46.649Z,13.75
2017-10-09T10:34:46.617Z,13.73
2017-10-09T10:35:46.598Z,13.76
2017-10-09T10:36:46.276Z,13.84
2017-10-09T10:37:46.548Z,13.84
2017-10-09T10:38:46.536Z,13.93
2017-10-09T10:39:46.521Z,13.88
2017-10-09T10:40:46.487Z,14.05
2017-10-09T10:41:46.467Z,13.93
2017-10-09T10:42:46.453Z,14.01
2017-10-09T10:43:46.427Z,14.01
2017-10-09T10:44:46.411Z,14.02
2017-10-09T10:45:46.381Z,14.04
2017-10-09T10:46:46.056Z,14.05
2017-10-09T10:47:46.349Z,14.04
2017-10-09T10:48:46.324Z,13.99
2017-10-09T10:49:46.301Z,14.11
2017-10-09T10:50:46.275Z,14.08
2017-10-09T10:51:46.251Z,14.17
2017-10-09T10:52:46.238Z,14.23
2017-10-09T10:53:46.220Z,14.23
2017-10-09T10:54:46.198Z,14.24
2017-10-09T10:55:46.182Z,14.13
2017-10-09T10:56:46.156Z,14.21
2017-10-09T10:57:46.132Z,14.24
2017-10-09T10:58:46.110Z,14.19
2017-10-09T10:59:46.087Z,14.27
2017-10-09T11:00:46.065Z,14.27
2017-10-09T11:01:46.059Z,14.27
2017-10-09T11:02:46.028Z,14.29
2017-10-09T11:03:45.694Z,14.41
2017-10-09T11:04:45.673Z,14.49
2017-10-09T11:05:45.661Z,14.61
2017-10-09T11:06:45.952Z,14.61
2017-10-09T11:07:45.919Z,14.71
2017-10-09T11:08:45.895Z,14.86
2017-10-09T11:09:45.893Z,14.87
2017-10-09T11:10:45.853Z,14.97
2017-10-09T11:11:45.839Z,15.01
2017-10-09T11:12:45.819Z,15.11
2017-10-09T11:13:45.489Z,15.13
2017-10-09T11:14:45.778Z,15.16
2017-10-09T11:15:45.765Z,15.16
2017-10-09T11:16:45.745Z,15.2
2017-10-09T11:17:45.709Z,15.23
2017-10-09T11:18:45.708Z,15.28
2017-10-09T11:19:45.670Z,15.31
2017-10-09T11:20:45.652Z,15.23
2017-10-09T11:21:45.630Z,15.15
2017-10-09T11:22:45.616Z,15.13
2017-10-09T11:23:45.589Z,14.95
2017-10-09T11:24:45.267Z,15.03
2017-10-09T11:25:45.546Z,15.09
2017-10-09T11:26:45.223Z,15.04
2017-10-09T11:27:45.200Z,15.03
2017-10-09T11:28:45.497Z,15.07
2017-10-09T11:29:45.465Z,14.97
2017-10-09T11:30:45.132Z,15.04
2017-10-09T11:31:45.423Z,15
2017-10-09T11:32:45.408Z,14.95
2017-10-09T11:33:45.083Z,14.85
2017-10-09T11:34:45.361Z,15.03
2017-10-09T11:35:45.350Z,14.87
2017-10-09T11:36:45.319Z,14.97
2017-10-09T11:37:45.302Z,15.01
2017-10-09T11:38:45.279Z,15
2017-10-09T11:39:44.956Z,14.97
2017-10-09T11:40:44.938Z,14.94
2017-10-09T11:41:45.221Z,14.93
2017-10-09T11:42:45.213Z,15.03
2017-10-09T11:43:44.871Z,14.97
2017-10-09T11:44:45.159Z,14.95
2017-10-09T11:45:45.145Z,14.93
2017-10-09T11:46:45.133Z,14.98
2017-10-09T11:47:45.102Z,14.94
2017-10-09T11:48:45.075Z,14.85
2017-10-09T11:49:45.051Z,14.9
2017-10-09T11:50:45.035Z,14.95
2017-10-09T11:51:44.708Z,14.93
2017-10-09T11:52:44.689Z,15.05
2017-10-09T11:53:44.970Z,15
2017-10-09T11:54:44.951Z,14.94
2017-10-09T11:55:44.930Z,15.07
2017-10-09T11:56:44.911Z,15.09
2017-10-09T11:57:44.895Z,15.19
2017-10-09T11:58:44.870Z,15.25
2017-10-09T11:59:44.852Z,15.28
2017-10-09T12:00:44.825Z,15.27
2017-10-09T12:01:44.504Z,15.2
2017-10-09T12:02:44.781Z,15.12
2017-10-09T12:03:44.457Z,15.22
2017-10-09T12:04:44.747Z,15.19
2017-10-09T12:05:44.728Z,15.27
2017-10-09T12:06:44.403Z,15.27
2017-10-09T12:07:44.680Z,15.27
2017-10-09T12:08:44.661Z,15.23
2017-10-09T12:09:44.639Z,15.28
2017-10-09T12:10:44.622Z,15.27
2017-10-09T12:11:44.602Z,15.15
2017-10-09T12:12:44.571Z,15.16
2017-10-09T12:13:44.555Z,15.15
2017-10-09T12:14:44.553Z,15.3
2017-10-09T12:15:44.516Z,15.27
2017-10-09T12:16:44.492Z,15.22
2017-10-09T12:17:44.173Z,15.27
2017-10-09T12:18:44.458Z,15.27
2017-10-09T12:19:44.435Z,15.3
2017-10-09T12:20:44.415Z,15.18
2017-10-09T12:21:44.422Z,15.12
2017-10-09T12:22:44.371Z,15.2
2017-10-09T12:23:44.348Z,15.13
2017-10-09T12:24:44.331Z,15.16
2017-10-09T12:25:44.316Z,15.11
2017-10-09T12:26:44.290Z,15.05
2017-10-09T12:27:43.971Z,15.07
2017-10-09T12:28:44.263Z,15.05
2017-10-09T12:29:44.225Z,15.15
2017-10-09T12:30:44.219Z,15.11
2017-10-09T12:31:44.193Z,14.97
2017-10-09T12:32:44.166Z,15
2017-10-09T12:33:44.144Z,15.01
2017-10-09T12:34:43.820Z,14.91
2017-10-09T12:35:44.102Z,14.87
2017-10-09T12:36:44.087Z,14.8
2017-10-09T12:37:43.748Z,14.8
2017-10-09T12:38:44.041Z,14.85
2017-10-09T12:39:44.028Z,14.83
2017-10-09T12:40:43.993Z,14.85
2017-10-09T12:41:43.668Z,14.71
2017-10-09T12:42:43.957Z,14.83
2017-10-09T12:43:43.942Z,14.85
2017-10-09T12:44:43.914Z,14.82
2017-10-09T12:45:43.897Z,14.74
2017-10-09T12:46:43.868Z,14.83
2017-10-09T12:47:43.877Z,14.83
2017-10-09T12:48:43.832Z,14.75
2017-10-09T12:49:43.811Z,14.8
2017-10-09T12:50:43.790Z,14.71
2017-10-09T12:51:43.770Z,14.79
2017-10-09T12:52:43.749Z,14.86
2017-10-09T12:53:43.151Z,14.86
2017-10-09T12:54:43.702Z,14.8
2017-10-09T12:55:43.684Z,14.9
2017-10-09T12:56:43.665Z,14.87
2017-10-09T12:57:43.640Z,14.83
2017-10-09T12:58:43.614Z,14.91
2017-10-09T12:59:43.297Z,14.91
2017-10-09T13:00:43.579Z,15
2017-10-09T13:01:43.554Z,15.11
2017-10-09T13:02:43.547Z,15.07
2017-10-09T13:03:43.520Z,15.07
2017-10-09T13:04:43.498Z,15.22
2017-10-09T13:05:43.475Z,15.25
2017-10-09T13:06:43.452Z,15.25
2017-10-09T13:07:43.441Z,15.35
2017-10-09T13:08:43.412Z,15.37
2017-10-09T13:09:42.775Z,15.34